createdAt,value
2022-10-05T00:02:26.406Z,4.10
2022-10-05T00:04:59.261Z,4.10
2022-10-05T00:07:26.135Z,4.10
2022-10-05T00:10:00.746Z,4.40
2022-10-05T00:12:30.557Z,4.50
2022-10-05T00:15:01.254Z,4.60
2022-10-05T00:17:30.356Z,4.50
2022-10-05T00:19:57.143Z,4.50
2022-10-05T00:22:31.780Z,4.30
2022-10-05T00:25:00.865Z,4.50
2022-10-05T00:27:33.921Z,4.90
2022-10-05T00:30:11.152Z,5.00
2022-10-05T00:32:38.027Z,5.00
2022-10-05T00:35:11.002Z,5.00
2022-10-05T00:37:38.911Z,5.30
2022-10-05T00:40:11.305Z,5.40
2022-10-05T00:42:48.387Z,5.30
2022-10-05T00:45:33.399Z,5.20
2022-10-05T00:48:07.966Z,5.00
2022-10-05T00:50:59.553Z,4.90
2022-10-05T00:53:52.036Z,4.80
2022-10-05T00:56:53.263Z,4.50
2022-10-05T00:59:53.673Z,4.20
2022-10-05T01:02:46.095Z,4.20
2022-10-05T01:05:15.877Z,4.30
2022-10-05T01:07:48.615Z,4.30
2022-10-05T01:10:38.694Z,4.50
2022-10-05T01:13:13.433Z,4.90
2022-10-05T01:15:46.377Z,5.10
2022-10-05T01:18:19.944Z,5.20
2022-10-05T01:21:16.396Z,5.40
2022-10-05T01:23:52.812Z,5.30
2022-10-05T01:27:16.842Z,5.30
2022-10-05T01:30:09.348Z,5.00
2022-10-05T01:33:06.751Z,5.10
2022-10-05T01:35:44.304Z,5.20
2022-10-05T01:38:24.230Z,4.90
2022-10-05T01:41:20.081Z,4.70
2022-10-05T01:43:57.436Z,4.40
2022-10-05T01:46:36.315Z,4.40
2022-10-05T01:49:41.149Z,4.50
2022-10-05T01:52:40.758Z,4.50
2022-10-05T01:55:29.225Z,4.60
2022-10-05T01:58:01.846Z,4.60
2022-10-05T02:00:29.783Z,4.60
2022-10-05T02:03:01.509Z,4.60
2022-10-05T02:05:39.841Z,4.40
2022-10-05T02:08:11.766Z,4.10
2022-10-05T02:10:48.030Z,4.20
2022-10-05T02:13:21.533Z,4.10
2022-10-05T02:15:51.462Z,4.10
2022-10-05T02:18:23.156Z,4.20
2022-10-05T02:20:52.787Z,4.30
2022-10-05T02:23:23.877Z,4.30
2022-10-05T02:25:54.439Z,4.30
2022-10-05T02:28:48.031Z,4.20
2022-10-05T02:31:24.299Z,4.30
2022-10-05T02:33:51.028Z,4.20
2022-10-05T02:36:30.345Z,4.00
2022-10-05T02:38:59.800Z,4.00
2022-10-05T02:42:00.898Z,3.80
2022-10-05T02:44:52.766Z,4.10
2022-10-05T02:47:35.103Z,4.00
2022-10-05T02:50:36.869Z,3.80
2022-10-05T02:53:35.210Z,3.80
2022-10-05T02:56:11.202Z,3.80
2022-10-05T02:59:14.295Z,4.00
2022-10-05T03:01:47.570Z,3.90
2022-10-05T03:04:24.653Z,4.10
2022-10-05T03:07:18.819Z,4.20
2022-10-05T03:10:01.554Z,4.20
2022-10-05T03:12:47.606Z,4.00
2022-10-05T03:15:38.900Z,4.00
2022-10-05T03:18:50.475Z,4.00
2022-10-05T03:21:35.666Z,4.00
2022-10-05T03:24:21.952Z,4.00
2022-10-05T03:26:49.355Z,4.30
2022-10-05T03:29:38.918Z,4.40
2022-10-05T03:32:30.326Z,4.40
2022-10-05T03:35:22.635Z,4.30
2022-10-05T03:38:04.431Z,4.40
2022-10-05T03:40:44.591Z,4.30
2022-10-05T03:43:32.652Z,4.50
2022-10-05T03:46:26.355Z,4.60
2022-10-05T03:49:16.476Z,4.50
2022-10-05T03:51:49.023Z,4.50
2022-10-05T03:54:25.840Z,4.50
2022-10-05T03:56:57.886Z,4.50
2022-10-05T03:59:51.602Z,4.50
2022-10-05T04:02:33.675Z,4.70
2022-10-05T04:05:15.079Z,4.80
2022-10-05T04:07:51.831Z,5.00
2022-10-05T04:10:25.930Z,5.20
2022-10-05T04:13:04.717Z,5.20
2022-10-05T04:15:44.167Z,5.20
2022-10-05T04:18:40.242Z,5.40
2022-10-05T04:21:31.261Z,5.40
2022-10-05T04:24:19.070Z,5.40
2022-10-05T04:26:54.359Z,5.40
2022-10-05T04:29:37.942Z,5.40
2022-10-05T04:32:16.056Z,5.40
2022-10-05T04:35:08.670Z,5.40
2022-10-05T04:37:42.079Z,5.40
2022-10-05T04:40:26.308Z,5.40
2022-10-05T04:43:08.267Z,5.40
2022-10-05T04:45:56.896Z,5.40
2022-10-05T04:48:35.691Z,5.40
2022-10-05T04:51:38.669Z,5.50
2022-10-05T04:54:19.624Z,5.50
2022-10-05T04:56:54.932Z,5.40
2022-10-05T04:59:47.620Z,5.50
2022-10-05T05:02:43.938Z,5.60
2022-10-05T05:05:25.993Z,5.50
2022-10-05T05:08:02.172Z,5.60
2022-10-05T05:10:35.320Z,5.60
2022-10-05T05:13:18.372Z,5.60
2022-10-05T05:15:54.179Z,5.60
2022-10-05T05:18:30.088Z,5.60
2022-10-05T05:21:17.854Z,5.60
2022-10-05T05:23:54.614Z,5.50
2022-10-05T05:26:39.032Z,5.40
2022-10-05T05:29:35.652Z,5.30
2022-10-05T05:32:05.831Z,5.40
2022-10-05T05:35:00.041Z,5.40
2022-10-05T05:37:52.910Z,5.60
2022-10-05T05:40:48.926Z,5.50
2022-10-05T05:43:53.948Z,5.60
2022-10-05T05:46:58.285Z,5.80
2022-10-05T05:49:42.041Z,5.80
2022-10-05T05:52:28.990Z,6.00
2022-10-05T05:55:06.801Z,6.00
2022-10-05T05:58:03.092Z,6.20
2022-10-05T06:00:45.644Z,6.20
2022-10-05T06:03:42.179Z,6.30
2022-10-05T06:06:14.763Z,6.30
2022-10-05T06:08:46.372Z,6.40
2022-10-05T06:11:52.086Z,6.40
2022-10-05T06:14:25.165Z,6.50
2022-10-05T06:17:00.827Z,6.50
2022-10-05T06:19:34.697Z,6.60
2022-10-05T06:22:17.120Z,6.50
2022-10-05T06:25:18.196Z,6.70
2022-10-05T06:28:11.402Z,6.70
2022-10-05T06:31:00.773Z,6.90
2022-10-05T06:33:45.681Z,7.00
2022-10-05T06:36:32.774Z,7.20
2022-10-05T06:39:16.643Z,7.50
2022-10-05T06:41:56.973Z,7.60
2022-10-05T06:45:01.940Z,7.80
2022-10-05T06:48:11.250Z,8.00
2022-10-05T06:51:04.227Z,8.10
2022-10-05T06:53:57.781Z,8.10
2022-10-05T06:57:12.568Z,8.10
2022-10-05T07:00:01.831Z,8.10
2022-10-05T07:02:48.612Z,8.10
2022-10-05T07:05:52.327Z,8.10
2022-10-05T07:08:25.573Z,8.10
2022-10-05T07:11:04.693Z,8.20
2022-10-05T07:13:47.186Z,8.30
2022-10-05T07:16:42.140Z,8.50
2022-10-05T07:19:32.855Z,8.60
2022-10-05T07:22:37.012Z,8.60
2022-10-05T07:25:23.358Z,8.60
2022-10-05T07:28:00.156Z,8.60
2022-10-05T07:30:27.004Z,8.60
2022-10-05T07:33:22.502Z,8.60
2022-10-05T07:36:26.848Z,8.60
2022-10-05T07:39:06.686Z,8.60
2022-10-05T07:41:33.423Z,8.70
2022-10-05T07:44:18.499Z,8.70
2022-10-05T07:47:09.838Z,8.80
2022-10-05T07:50:02.382Z,8.90
2022-10-05T07:52:38.021Z,8.90
2022-10-05T07:55:20.486Z,8.80
2022-10-05T07:58:27.493Z,8.80
2022-10-05T08:01:35.306Z,8.90
2022-10-05T08:04:30.650Z,9.00
2022-10-05T08:07:08.213Z,9.20
2022-10-05T08:09:47.708Z,9.30
2022-10-05T08:12:29.132Z,9.30
2022-10-05T08:15:15.516Z,9.40
2022-10-05T08:17:56.804Z,9.40
2022-10-05T08:20:40.561Z,9.40
2022-10-05T08:23:25.117Z,9.40
2022-10-05T08:26:05.452Z,9.60
2022-10-05T08:29:13.766Z,9.60
2022-10-05T08:31:45.040Z,10.10
2022-10-05T08:34:39.929Z,10.20
2022-10-05T08:37:19.038Z,10.40
2022-10-05T08:40:33.430Z,10.50
2022-10-05T08:43:18.152Z,10.70
2022-10-05T08:46:00.015Z,10.90
2022-10-05T08:48:48.952Z,11.00
2022-10-05T08:51:24.121Z,11.30
2022-10-05T08:54:10.275Z,11.50
2022-10-05T08:57:04.144Z,11.70
2022-10-05T09:00:13.324Z,11.90
2022-10-05T09:02:56.977Z,12.20
2022-10-05T09:05:32.945Z,12.60
2022-10-05T09:08:28.049Z,12.80
2022-10-05T09:11:03.800Z,13.10
2022-10-05T09:13:53.304Z,13.10
2022-10-05T09:16:20.130Z,13.10
2022-10-05T09:19:13.704Z,12.90
2022-10-05T09:21:55.575Z,12.60
2022-10-05T09:24:54.265Z,12.60
2022-10-05T09:27:36.246Z,12.70
2022-10-05T09:30:21.682Z,13.30
2022-10-05T09:33:10.606Z,13.70
2022-10-05T09:35:46.337Z,13.90
2022-10-05T09:38:17.602Z,14.10
2022-10-05T09:41:08.658Z,14.30
2022-10-05T09:43:54.653Z,14.50
2022-10-05T09:46:59.417Z,14.30
2022-10-05T09:50:07.881Z,14.50
2022-10-05T09:52:55.201Z,14.60
2022-10-05T09:55:40.178Z,14.70
2022-10-05T09:58:30.341Z,14.70
2022-10-05T10:01:33.065Z,14.80
2022-10-05T10:04:06.960Z,14.90
2022-10-05T10:06:57.159Z,14.60
2022-10-05T10:09:39.736Z,14.30
2022-10-05T10:12:24.661Z,13.80
2022-10-05T10:15:13.519Z,13.70
2022-10-05T10:18:21.996Z,13.70
2022-10-05T10:20:58.233Z,13.90
2022-10-05T10:23:40.650Z,14.10
2022-10-05T10:26:25.116Z,14.10
2022-10-05T10:29:08.003Z,14.00
2022-10-05T10:31:45.388Z,13.90
2022-10-05T10:34:21.138Z,13.90
2022-10-05T10:37:12.253Z,14.00
2022-10-05T10:39:57.480Z,14.10
2022-10-05T10:42:36.142Z,14.30
2022-10-05T10:45:28.731Z,14.40
2022-10-05T10:48:11.736Z,14.40
2022-10-05T10:51:10.356Z,14.40
2022-10-05T10:54:02.670Z,14.40
2022-10-05T10:56:29.477Z,14.50
2022-10-05T10:59:31.641Z,14.80
2022-10-05T11:02:20.531Z,15.10
2022-10-05T11:05:04.910Z,15.30
2022-10-05T11:07:50.545Z,15.60
2022-10-05T11:10:46.102Z,15.80
2022-10-05T11:14:02.553Z,15.80
2022-10-05T11:17:02.493Z,16.10
2022-10-05T11:20:10.074Z,16.60
2022-10-05T11:22:50.635Z,16.80
2022-10-05T11:25:55.780Z,17.10
2022-10-05T11:29:00.687Z,17.40
2022-10-05T11:31:41.648Z,17.50
2022-10-05T11:34:43.439Z,17.90
2022-10-05T11:37:29.700Z,18.20
2022-10-05T11:40:35.452Z,18.50
2022-10-05T11:43:02.103Z,18.70
2022-10-05T11:45:38.499Z,18.90
2022-10-05T11:48:08.230Z,19.10
2022-10-05T11:51:14.121Z,19.50
2022-10-05T11:53:46.043Z,19.60
2022-10-05T11:59:20.861Z,20.00
2022-10-05T12:01:56.336Z,20.00
2022-10-05T12:04:49.013Z,19.80
2022-10-05T12:07:24.677Z,19.90
2022-10-05T12:10:17.110Z,19.20
2022-10-05T12:13:19.244Z,18.50
2022-10-05T12:16:01.546Z,17.70
2022-10-05T12:18:31.451Z,17.10
2022-10-05T12:21:11.080Z,16.80
2022-10-05T12:23:40.464Z,16.40
2022-10-05T12:26:14.862Z,16.10
2022-10-05T12:28:47.502Z,15.90
2022-10-05T12:31:41.493Z,15.60
2022-10-05T12:34:34.652Z,15.50
2022-10-05T12:37:33.559Z,15.30
2022-10-05T12:40:25.752Z,15.30
2022-10-05T12:43:01.273Z,15.20
2022-10-05T12:45:37.373Z,15.10
2022-10-05T12:48:43.662Z,15.10
2022-10-05T12:51:30.828Z,15.10
2022-10-05T12:54:06.443Z,15.00
2022-10-05T12:56:44.529Z,15.10
2022-10-05T12:59:52.563Z,15.10
2022-10-05T13:02:42.322Z,15.20
2022-10-05T13:05:11.345Z,15.20
2022-10-05T13:08:13.433Z,15.30
2022-10-05T13:10:50.529Z,15.30
2022-10-05T13:13:26.716Z,15.30
2022-10-05T13:16:49.213Z,15.30
2022-10-05T13:19:30.377Z,15.30
2022-10-05T13:22:12.288Z,15.40
2022-10-05T13:25:17.381Z,15.40
2022-10-05T13:27:57.663Z,15.30
2022-10-05T13:30:27.081Z,15.30
2022-10-05T13:33:00.568Z,15.40
2022-10-05T13:35:53.082Z,15.40
2022-10-05T13:38:38.803Z,15.50
2022-10-05T13:41:17.589Z,15.40
2022-10-05T13:44:07.642Z,15.50
2022-10-05T13:47:06.545Z,15.50
2022-10-05T13:49:49.465Z,15.50
2022-10-05T13:52:51.212Z,15.50
2022-10-05T13:55:29.687Z,15.60
2022-10-05T13:58:31.187Z,15.60
2022-10-05T14:01:07.350Z,15.50
2022-10-05T14:03:36.887Z,15.50
2022-10-05T14:06:27.560Z,15.50
2022-10-05T14:08:59.914Z,15.50
2022-10-05T14:11:35.272Z,15.50
2022-10-05T14:14:23.601Z,15.50
2022-10-05T14:17:00.989Z,15.50
2022-10-05T14:19:32.424Z,15.60
2022-10-05T14:22:11.389Z,15.50
2022-10-05T14:24:50.575Z,15.60
2022-10-05T14:27:24.915Z,15.50
2022-10-05T14:30:08.498Z,15.60
2022-10-05T14:32:52.973Z,15.60
2022-10-05T14:35:22.080Z,15.60
2022-10-05T14:38:00.331Z,15.50
2022-10-05T14:40:35.906Z,15.50
2022-10-05T14:43:19.754Z,15.60
2022-10-05T14:45:55.031Z,15.70
2022-10-05T14:48:22.512Z,15.50
2022-10-05T14:51:03.336Z,15.60
2022-10-05T14:53:59.592Z,15.60
2022-10-05T14:56:47.982Z,15.60
2022-10-05T14:59:59.980Z,15.60
2022-10-05T15:02:45.132Z,15.60
2022-10-05T15:05:16.804Z,15.60
2022-10-05T15:07:48.162Z,15.50
2022-10-05T15:10:33.464Z,15.60
2022-10-05T15:13:20.241Z,15.60
2022-10-05T15:16:13.706Z,15.40
2022-10-05T15:18:53.751Z,15.40
2022-10-05T15:21:47.755Z,15.40
2022-10-05T15:24:24.275Z,15.40
2022-10-05T15:27:01.067Z,15.30
2022-10-05T15:29:54.780Z,15.20
2022-10-05T15:32:46.456Z,15.20
2022-10-05T15:35:44.049Z,15.20
2022-10-05T15:38:27.302Z,15.20
2022-10-05T15:41:07.065Z,15.20
2022-10-05T15:43:58.550Z,15.10
2022-10-05T15:46:56.390Z,15.00
2022-10-05T15:49:39.674Z,15.00
2022-10-05T15:52:33.226Z,15.00
2022-10-05T15:55:19.520Z,14.90
2022-10-05T15:58:25.167Z,14.80
2022-10-05T16:01:04.743Z,14.90
2022-10-05T16:03:51.502Z,14.80
2022-10-05T16:06:39.735Z,14.80
2022-10-05T16:09:19.999Z,14.80
2022-10-05T16:12:09.816Z,14.60
2022-10-05T16:14:53.347Z,14.50
2022-10-05T16:17:52.460Z,14.50
2022-10-05T16:20:32.259Z,14.30
2022-10-05T16:23:05.730Z,14.30
2022-10-05T16:25:55.955Z,14.20
2022-10-05T16:28:54.768Z,14.10
2022-10-05T16:32:04.353Z,13.90
2022-10-05T16:34:56.021Z,13.90
2022-10-05T16:37:59.268Z,13.70
2022-10-05T16:40:30.069Z,13.60
2022-10-05T16:42:57.764Z,13.60
2022-10-05T16:45:45.704Z,13.40
2022-10-05T16:48:52.246Z,13.40
2022-10-05T16:51:55.501Z,13.30
2022-10-05T16:54:31.478Z,13.20
2022-10-05T16:57:13.193Z,13.00
2022-10-05T16:59:40.039Z,12.90
2022-10-05T17:02:39.898Z,12.70
2022-10-05T17:05:28.553Z,12.50
2022-10-05T17:08:12.803Z,12.40
2022-10-05T17:10:54.415Z,12.30
2022-10-05T17:13:29.509Z,12.20
2022-10-05T17:16:37.437Z,12.20
2022-10-05T17:19:19.415Z,11.90
2022-10-05T17:21:48.615Z,11.80
2022-10-05T17:24:46.535Z,11.80
2022-10-05T17:27:25.109Z,11.70
2022-10-05T17:30:15.777Z,11.50
2022-10-05T17:33:04.660Z,11.50
2022-10-05T17:35:51.711Z,11.30
2022-10-05T17:38:22.309Z,11.20
2022-10-05T17:41:24.770Z,11.20
2022-10-05T17:44:24.293Z,11.00
2022-10-05T17:46:56.070Z,11.10
2022-10-05T17:49:38.771Z,10.90
2022-10-05T17:52:45.029Z,11.00
2022-10-05T17:55:35.951Z,11.00
2022-10-05T17:58:25.959Z,10.90
2022-10-05T18:00:59.822Z,10.80
2022-10-05T18:03:41.366Z,10.80
2022-10-05T18:06:26.312Z,10.90
2022-10-05T18:09:20.538Z,10.90
2022-10-05T18:12:07.543Z,10.90
2022-10-05T18:14:52.555Z,11.10
2022-10-05T18:17:54.622Z,11.10
2022-10-05T18:20:26.886Z,11.10
2022-10-05T18:23:01.059Z,11.30
2022-10-05T18:25:42.881Z,11.50
2022-10-05T18:28:44.523Z,11.50
2022-10-05T18:31:15.506Z,11.60
2022-10-05T18:33:59.495Z,11.70
2022-10-05T18:36:36.848Z,11.70
2022-10-05T18:39:24.081Z,11.70
2022-10-05T18:41:50.782Z,11.70
2022-10-05T18:44:52.295Z,11.80
2022-10-05T18:47:22.661Z,11.80
2022-10-05T18:49:49.389Z,11.90
2022-10-05T18:52:27.810Z,11.90
2022-10-05T18:55:15.768Z,12.00
2022-10-05T18:58:04.350Z,12.10
2022-10-05T19:00:47.097Z,12.10
2022-10-05T19:03:23.707Z,12.10
2022-10-05T19:06:04.467Z,12.20
2022-10-05T19:08:39.661Z,12.30
2022-10-05T19:11:17.947Z,12.50
2022-10-05T19:14:15.359Z,12.50
2022-10-05T19:16:59.865Z,12.50
2022-10-05T19:20:03.920Z,12.40
2022-10-05T19:22:38.797Z,12.40
2022-10-05T19:25:08.655Z,12.60
2022-10-05T19:27:41.401Z,12.60
2022-10-05T19:30:18.977Z,12.60
2022-10-05T19:33:07.720Z,12.70
2022-10-05T19:36:00.420Z,12.70
2022-10-05T19:38:34.683Z,12.60
2022-10-05T19:41:38.786Z,12.70
2022-10-05T19:44:52.245Z,12.70
2022-10-05T19:47:44.652Z,12.70
2022-10-05T19:50:26.147Z,12.70
2022-10-05T19:53:18.046Z,12.70
2022-10-05T19:55:47.465Z,12.70
2022-10-05T19:58:24.797Z,12.80
2022-10-05T20:01:04.236Z,12.50
2022-10-05T20:03:35.337Z,12.70
2022-10-05T20:06:06.652Z,12.60
2022-10-05T20:08:47.273Z,12.50
2022-10-05T20:11:17.001Z,12.40
2022-10-05T20:14:06.649Z,12.30
2022-10-05T20:16:53.383Z,12.40
2022-10-05T20:20:09.251Z,12.30
2022-10-05T20:22:46.295Z,12.10
2022-10-05T20:25:19.102Z,11.90
2022-10-05T20:27:52.195Z,11.70
2022-10-05T20:30:31.235Z,11.60
2022-10-05T20:33:01.871Z,11.60
2022-10-05T20:35:30.581Z,11.30
2022-10-05T20:38:02.812Z,11.40
2022-10-05T20:40:30.291Z,11.30
2022-10-05T20:42:58.144Z,11.40
2022-10-05T20:45:24.933Z,11.40
2022-10-05T20:47:54.012Z,11.40
2022-10-05T20:50:22.163Z,11.20
2022-10-05T20:52:48.956Z,11.30
2022-10-05T20:55:15.785Z,11.20
2022-10-05T20:57:42.652Z,11.10
2022-10-05T21:00:11.002Z,11.00
2022-10-05T21:02:40.345Z,10.90
2022-10-05T21:05:07.664Z,10.80
2022-10-05T21:07:34.742Z,10.90
2022-10-05T21:10:03.328Z,10.80
2022-10-05T21:12:33.934Z,10.90
2022-10-05T21:15:01.397Z,10.70
2022-10-05T21:17:28.293Z,10.80
2022-10-05T21:19:55.202Z,10.70
2022-10-05T21:22:22.378Z,10.50
2022-10-05T21:24:51.324Z,10.50
2022-10-05T21:27:18.400Z,10.30
2022-10-05T21:29:45.305Z,10.20
2022-10-05T21:32:12.127Z,10.10
2022-10-05T21:34:40.186Z,10.00
2022-10-05T21:37:10.421Z,10.00
2022-10-05T21:39:37.163Z,10.00
2022-10-05T21:42:06.498Z,9.90
2022-10-05T21:44:33.204Z,9.90
2022-10-05T21:47:04.199Z,9.90
2022-10-05T21:49:33.502Z,9.80
2022-10-05T21:52:01.677Z,9.80
2022-10-05T21:54:28.780Z,9.60
2022-10-05T21:56:58.749Z,9.60
2022-10-05T21:59:31.301Z,9.50
2022-10-05T22:01:58.732Z,9.50
2022-10-05T22:04:25.740Z,9.40
2022-10-05T22:06:53.342Z,9.50
2022-10-05T22:09:20.172Z,9.50
2022-10-05T22:11:49.663Z,9.50
2022-10-05T22:14:18.622Z,9.40
2022-10-05T22:16:45.479Z,9.40
2022-10-05T22:19:18.819Z,9.40
2022-10-05T22:21:45.705Z,9.40
2022-10-05T22:24:14.295Z,9.40
2022-10-05T22:26:43.438Z,9.40
2022-10-05T22:29:10.326Z,9.30
2022-10-05T22:31:38.801Z,9.40
2022-10-05T22:34:05.653Z,9.40
2022-10-05T22:36:34.672Z,9.50
2022-10-05T22:39:01.383Z,9.50
2022-10-05T22:41:28.341Z,9.40
2022-10-05T22:43:55.095Z,9.40
2022-10-05T22:46:21.937Z,9.40
2022-10-05T22:48:48.758Z,9.40
2022-10-05T22:51:17.904Z,9.50
2022-10-05T22:53:44.686Z,9.50
2022-10-05T22:56:14.197Z,9.60
2022-10-05T22:58:44.215Z,9.80
2022-10-05T23:01:18.584Z,9.90
2022-10-05T23:03:45.674Z,9.90
2022-10-05T23:06:15.545Z,10.00
2022-10-05T23:08:45.915Z,10.20
2022-10-05T23:11:17.959Z,10.20
2022-10-05T23:13:45.142Z,10.30
2022-10-05T23:16:14.326Z,10.40
2022-10-05T23:18:42.010Z,10.40
2022-10-05T23:21:10.448Z,10.50
2022-10-05T23:23:39.789Z,10.60
2022-10-05T23:26:11.666Z,10.60
2022-10-05T23:28:48.999Z,10.60
2022-10-05T23:31:18.354Z,10.50
2022-10-05T23:33:50.916Z,10.50
2022-10-05T23:36:21.235Z,10.30
2022-10-05T23:38:48.378Z,10.10
2022-10-05T23:41:19.878Z,10.00
2022-10-05T23:43:51.492Z,9.80
2022-10-05T23:46:18.555Z,9.60
2022-10-05T23:48:45.301Z,9.50
2022-10-05T23:51:13.491Z,9.40
2022-10-05T23:53:40.188Z,9.40
2022-10-05T23:56:07.281Z,9.20
2022-10-05T23:58:34.324Z,9.30
